createdAt,value
2022-09-20T00:02:38.505Z,100
2022-09-20T00:07:38.488Z,1
2022-09-20T00:12:38.477Z,2
2022-09-20T00:17:38.448Z,2
2022-09-20T00:22:38.435Z,3
2022-09-20T00:27:38.417Z,2.5
2022-09-20T00:32:38.403Z,3
2022-09-20T00:37:38.375Z,3.5
2022-09-20T00:42:38.354Z,4.5
2022-09-20T00:47:38.339Z,4
2022-09-20T00:52:38.320Z,4.5
2022-09-20T00:57:38.297Z,4.5
2022-09-20T01:02:38.276Z,5
2022-09-20T01:07:38.260Z,6
2022-09-20T01:12:38.238Z,5.5
2022-09-20T01:17:38.223Z,6.5
2022-09-20T01:22:38.207Z,7.5
2022-09-20T01:27:38.180Z,7.5
2022-09-20T01:32:38.165Z,7.5
2022-09-20T01:37:38.142Z,8
2022-09-20T01:42:38.119Z,8.5
2022-09-20T01:47:38.121Z,9.5
2022-09-20T01:52:38.090Z,10
2022-09-20T01:57:38.067Z,10.5
2022-09-20T02:02:38.067Z,11.5
2022-09-20T02:07:38.030Z,11.5
2022-09-20T02:12:38.003Z,11
2022-09-20T02:17:37.995Z,12
2022-09-20T02:22:37.970Z,12
2022-09-20T02:27:37.961Z,11.5
2022-09-20T02:32:37.935Z,12.5
2022-09-20T02:37:37.914Z,12
2022-09-20T02:42:37.896Z,12.5
2022-09-20T02:47:37.878Z,13.5
2022-09-20T02:52:37.857Z,13.5
2022-09-20T02:57:37.843Z,13.5
2022-09-20T03:02:37.825Z,14
2022-09-20T03:07:37.808Z,13.5
2022-09-20T03:12:37.788Z,14
2022-09-20T03:17:37.765Z,15.5
2022-09-20T03:22:37.749Z,15
2022-09-20T03:27:37.721Z,15
2022-09-20T03:32:37.714Z,15
2022-09-20T03:37:37.688Z,15
2022-09-20T03:42:37.675Z,15.5
2022-09-20T03:52:37.629Z,16
2022-09-20T03:57:37.620Z,16.5
2022-09-20T04:02:37.599Z,16.5
2022-09-20T04:07:37.581Z,16.5
2022-09-20T04:12:37.563Z,16.5
2022-09-20T04:17:37.554Z,17
2022-09-20T04:22:37.526Z,17
2022-09-20T04:27:37.511Z,17.5
2022-09-20T04:32:37.487Z,17.5
2022-09-20T04:37:37.464Z,18
2022-09-20T04:42:37.454Z,18
2022-09-20T04:52:37.405Z,18.5
2022-09-20T04:57:37.396Z,18.5
2022-09-20T05:02:37.396Z,19
2022-09-20T05:07:37.353Z,19.5
2022-09-20T05:12:37.335Z,18.5
2022-09-20T05:17:37.323Z,18
2022-09-20T05:22:37.313Z,17.5
2022-09-20T05:27:37.286Z,17.5
2022-09-20T05:32:37.264Z,18
2022-09-20T05:37:37.238Z,18
2022-09-20T05:42:37.227Z,19
2022-09-20T05:47:37.221Z,18.5
2022-09-20T05:52:37.203Z,18
2022-09-20T05:57:37.170Z,17.5
2022-09-20T06:02:37.157Z,17
2022-09-20T06:07:37.154Z,15.5
2022-09-20T06:12:37.224Z,15
2022-09-20T06:17:37.104Z,14
2022-09-20T06:22:37.083Z,14.5
2022-09-20T06:27:37.050Z,13
2022-09-20T06:32:37.064Z,11
2022-09-20T06:37:37.028Z,10
2022-09-20T06:42:37.006Z,10.5
2022-09-20T06:47:36.978Z,9
2022-09-20T06:52:36.980Z,8
2022-09-20T06:57:36.940Z,7.5
2022-09-20T07:02:36.924Z,7
2022-09-20T07:07:36.910Z,5
2022-09-20T07:12:36.881Z,3.5
2022-09-20T07:17:36.865Z,2.5
2022-09-20T07:22:36.852Z,1
2022-09-20T07:27:36.828Z,0.5
2022-09-20T07:32:36.814Z,0
2022-09-20T07:37:36.786Z,0
2022-09-20T07:42:36.875Z,0
2022-09-20T07:47:36.757Z,0
2022-09-20T07:52:36.747Z,0
2022-09-20T07:57:36.715Z,0
2022-09-20T08:02:36.692Z,0
2022-09-20T08:07:36.671Z,0
2022-09-20T08:12:36.649Z,0
2022-09-20T08:17:36.632Z,0
2022-09-20T08:22:36.608Z,0
2022-09-20T08:27:36.588Z,0
2022-09-20T08:32:36.625Z,0
2022-09-20T08:37:36.558Z,0
2022-09-20T08:42:36.530Z,98.5
2022-09-20T08:47:36.518Z,93
2022-09-20T08:52:36.492Z,93.5
2022-09-20T08:57:36.530Z,90
2022-09-20T09:02:36.487Z,87.5
2022-09-20T09:07:36.513Z,85
2022-09-20T09:12:36.410Z,87
2022-09-20T09:17:36.432Z,83
2022-09-20T09:22:36.375Z,80.5
2022-09-20T09:27:36.387Z,80
2022-09-20T09:32:36.322Z,80
2022-09-20T09:37:36.315Z,79
2022-09-20T09:42:36.283Z,74.5
2022-09-20T09:47:36.317Z,75
2022-09-20T09:52:36.265Z,73.5
2022-09-20T09:57:36.246Z,73.5
2022-09-20T10:02:36.204Z,77
2022-09-20T10:07:36.174Z,73.5
2022-09-20T10:12:36.159Z,74
2022-09-20T10:17:36.133Z,74.5
2022-09-20T10:22:36.110Z,71
2022-09-20T10:27:36.086Z,70
2022-09-20T10:32:36.080Z,67.5
2022-09-20T10:37:36.113Z,67
2022-09-20T10:42:36.054Z,64
2022-09-20T10:47:36.011Z,63
2022-09-20T10:52:36.055Z,59
2022-09-20T10:57:35.975Z,56
2022-09-20T11:02:35.954Z,55
2022-09-20T11:07:35.923Z,55.5
2022-09-20T11:12:35.966Z,53.5
2022-09-20T11:17:35.884Z,53
2022-09-20T11:22:35.877Z,56.5
2022-09-20T11:27:35.842Z,58
2022-09-20T11:32:35.854Z,59
2022-09-20T11:37:35.802Z,59.5
2022-09-20T11:42:35.775Z,59.5
2022-09-20T11:47:35.753Z,58
2022-09-20T11:52:35.852Z,60
2022-09-20T11:57:35.789Z,59
2022-09-20T12:02:35.691Z,59
2022-09-20T12:07:35.762Z,56
2022-09-20T12:12:35.654Z,57
2022-09-20T12:17:35.626Z,56.5
2022-09-20T12:22:35.647Z,57.5
2022-09-20T12:27:35.584Z,56
2022-09-20T12:37:35.547Z,54
2022-09-20T12:47:35.500Z,51
2022-09-20T12:52:35.470Z,52
2022-09-20T12:57:35.465Z,53.5
2022-09-20T13:02:35.436Z,54
2022-09-20T13:07:35.422Z,53.5
2022-09-20T13:12:35.407Z,55
2022-09-20T13:17:35.375Z,53.5
2022-09-20T13:22:35.351Z,55
2022-09-20T13:27:35.331Z,53.5
2022-09-20T13:37:35.292Z,55.5
2022-09-20T13:42:35.265Z,56.5
2022-09-20T13:47:35.248Z,57.5
2022-09-20T13:52:35.289Z,57.5
2022-09-20T13:57:35.202Z,58
2022-09-20T14:02:35.184Z,56.5
2022-09-20T14:07:35.160Z,55
2022-09-20T14:12:35.158Z,53.5
2022-09-20T14:17:35.117Z,55
2022-09-20T14:22:35.103Z,56
2022-09-20T14:27:35.106Z,56.5
2022-09-20T14:32:35.062Z,57.5
2022-09-20T14:37:35.039Z,57.5
2022-09-20T14:42:35.014Z,58
2022-09-20T14:47:35.000Z,58
2022-09-20T14:52:34.975Z,59
2022-09-20T14:57:34.956Z,58.5
2022-09-20T15:02:34.953Z,58.5
2022-09-20T15:07:34.911Z,58.5
2022-09-20T15:12:34.886Z,58.5
2022-09-20T15:17:34.869Z,58.5
2022-09-20T15:22:34.848Z,58.5
2022-09-20T15:27:34.833Z,59
2022-09-20T15:32:34.799Z,59.5
2022-09-20T15:37:34.862Z,62
2022-09-20T15:42:34.767Z,61.5
2022-09-20T15:47:34.742Z,61.5
2022-09-20T15:52:34.713Z,64
2022-09-20T15:57:34.723Z,63.5
2022-09-20T16:02:34.675Z,63.5
2022-09-20T16:07:34.650Z,66
2022-09-20T16:12:34.731Z,66.5
2022-09-20T16:17:34.610Z,67.5
2022-09-20T16:22:34.592Z,67
2022-09-20T16:27:34.570Z,66.5
2022-09-20T16:32:34.550Z,67
2022-09-20T16:37:34.576Z,67.5
2022-09-20T16:42:34.537Z,69
2022-09-20T16:47:34.482Z,68
2022-09-20T16:52:34.471Z,69.5
2022-09-20T16:57:34.453Z,77
2022-09-20T17:02:34.465Z,74.5
2022-09-20T17:07:34.404Z,74.5
2022-09-20T17:12:34.387Z,73
2022-09-20T17:17:34.378Z,72.5
2022-09-20T17:22:34.349Z,79
2022-09-20T17:27:34.328Z,74.5
2022-09-20T17:32:34.307Z,75.5
2022-09-20T17:37:34.285Z,74
2022-09-20T17:42:34.262Z,76.5
2022-09-20T17:47:34.248Z,79
2022-09-20T17:57:34.197Z,82
2022-09-20T18:02:34.186Z,83.5
2022-09-20T18:07:34.158Z,84.5
2022-09-20T18:12:34.141Z,86
2022-09-20T18:17:34.122Z,85
2022-09-20T18:22:34.095Z,84
2022-09-20T18:27:34.100Z,84.5
2022-09-20T18:37:34.052Z,86
2022-09-20T18:42:34.017Z,88
2022-09-20T18:47:33.992Z,89
2022-09-20T18:52:33.975Z,91.5
2022-09-20T18:57:33.983Z,91
2022-09-20T19:02:33.932Z,91.5
2022-09-20T19:07:33.912Z,90.5
2022-09-20T19:12:33.897Z,92
2022-09-20T19:17:33.870Z,92
2022-09-20T19:22:33.855Z,90.5
2022-09-20T19:27:33.833Z,91
2022-09-20T19:32:33.816Z,92.5
2022-09-20T19:37:33.808Z,96
2022-09-20T19:42:33.776Z,96.5
2022-09-20T19:47:33.750Z,96
2022-09-20T19:52:33.758Z,99
2022-09-20T19:57:33.807Z,100
2022-09-20T20:02:33.685Z,100
2022-09-20T20:07:33.664Z,100
2022-09-20T20:12:33.642Z,100
2022-09-20T20:17:33.625Z,99
2022-09-20T20:22:33.622Z,99.5
2022-09-20T20:27:33.601Z,100
2022-09-20T20:32:33.590Z,99.5
2022-09-20T20:37:33.547Z,99
2022-09-20T20:42:33.569Z,100
2022-09-20T20:47:33.557Z,100
2022-09-20T20:52:33.486Z,100
2022-09-20T20:57:33.471Z,100
2022-09-20T21:02:33.458Z,100
2022-09-20T21:07:33.448Z,100
2022-09-20T21:12:33.408Z,100
2022-09-20T21:17:33.385Z,100
2022-09-20T21:22:33.363Z,100
2022-09-20T21:27:33.358Z,100
2022-09-20T21:32:33.324Z,100
2022-09-20T21:37:33.303Z,100
2022-09-20T21:42:33.286Z,100
2022-09-20T21:47:33.265Z,100
2022-09-20T21:52:33.249Z,100
2022-09-20T21:57:33.224Z,100
2022-09-20T22:02:33.215Z,100
2022-09-20T22:07:33.190Z,100
2022-09-20T22:12:33.168Z,100
2022-09-20T22:17:33.143Z,100
2022-09-20T22:22:33.128Z,100
2022-09-20T22:27:33.111Z,100
2022-09-20T22:32:33.118Z,100
2022-09-20T22:37:33.088Z,100
2022-09-20T22:42:33.052Z,100
2022-09-20T22:47:33.028Z,100
2022-09-20T22:52:33.006Z,100
2022-09-20T22:57:32.989Z,100
2022-09-20T23:02:32.973Z,1
2022-09-20T23:07:32.947Z,1
2022-09-20T23:12:32.932Z,2.5
2022-09-20T23:17:32.914Z,2
2022-09-20T23:22:32.886Z,5
2022-09-20T23:27:32.872Z,5
2022-09-20T23:32:32.851Z,7
2022-09-20T23:37:32.830Z,8.5
2022-09-20T23:42:32.809Z,7.5
2022-09-20T23:47:32.796Z,7.5
2022-09-20T23:52:32.786Z,5.5
2022-09-20T23:57:32.747Z,8.5
